This is the latest recevied weather packets stored in our database for station/object F4ACR-10. If no packets are shown the sender has not sent any weather packets the latest 10 day(s).
| Time | Temp. | Humidity | Pressure | Rain* | Wind** | Luminosity | Snow |
|---|---|---|---|---|---|---|---|
| 1787600677 | 20.56° C | 79% | 1011 hPa | - | - | - | - |
| 1787600077 | 21.11° C | 78% | 1011 hPa | - | - | - | - |
| 1787599477 | 21.11° C | 77% | 1010.7 hPa | - | - | - | - |
| 1787598877 | 21.11° C | 76% | 1010.5 hPa | - | - | - | - |
| 1787598276 | 21.11° C | 77% | 1010.3 hPa | - | - | - | - |
| 1787597676 | 21.11° C | 77% | 1010.2 hPa | - | - | - | - |
| 1787597076 | 21.11° C | 77% | 1010.1 hPa | - | - | - | - |
| 1787596476 | 21.67° C | 77% | 1010.1 hPa | - | - | - | - |
| 1787595876 | 22.22° C | 73% | 1010 hPa | - | - | - | - |
| 1787595275 | 23.33° C | 66% | 1010 hPa | - | - | - | - |
| 1787594675 | 24.44° C | 63% | 1010.1 hPa | - | - | - | - |
| 1787594075 | 23.89° C | 63% | 1010.2 hPa | - | - | - | - |
| 1787593475 | 23.89° C | 63% | 1010.1 hPa | - | - | - | - |
| 1787592875 | 25° C | 60% | 1010.2 hPa | - | - | - | - |
| 1787592274 | 24.44° C | 64% | 1010 hPa | - | - | - | - |
| 1787591674 | 23.33° C | 68% | 1010 hPa | - | - | - | - |
| 1787591074 | 22.22° C | 78% | 1010.1 hPa | - | - | - | - |
| 1787590474 | 22.78° C | 79% | 1010.1 hPa | - | - | - | - |
| 1787589874 | 25° C | 70% | 1010.2 hPa | - | - | - | - |
| 1787589273 | 22.22° C | 81% | 1010.4 hPa | - | - | - | - |
| 1787588673 | 20.56° C | 87% | 1010.9 hPa | - | - | - | - |
| 1787588073 | 20° C | 89% | 1011 hPa | - | - | - | - |
| 1787587473 | 20° C | 87% | 1011 hPa | - | - | - | - |
| 1787586872 | 20° C | 87% | 1010.6 hPa | - | - | - | - |
| 1787586272 | 20.56° C | 95% | 1010.8 hPa | - | - | - | - |
* Rain since midnight (hover to see other rain measurements)
** Current wind speed in m/s (hover to see current wind gust speed)